createdAt,value
2022-09-24T00:01:51.825Z,6.47
2022-09-24T00:04:20.124Z,8.20
2022-09-24T00:06:48.317Z,9.77
2022-09-24T00:09:19.463Z,6.95
2022-09-24T00:11:47.407Z,7.63
2022-09-24T00:14:14.810Z,6.93
2022-09-24T00:16:44.051Z,5.82
2022-09-24T00:19:13.819Z,10.38
2022-09-24T00:21:41.983Z,11.18
2022-09-24T00:24:33.162Z,9.25
2022-09-24T00:27:02.922Z,6.72
2022-09-24T00:29:33.952Z,10.35
2022-09-24T00:32:02.474Z,6.10
2022-09-24T00:34:30.083Z,31.58
2022-09-24T00:36:57.631Z,18.77
2022-09-24T00:39:25.162Z,10.15
2022-09-24T00:41:52.626Z,8.52
2022-09-24T00:44:39.080Z,4.70
2022-09-24T00:47:27.414Z,7.20
2022-09-24T00:50:17.753Z,16.25
2022-09-24T00:53:08.484Z,11.02
2022-09-24T00:55:38.328Z,14.30
2022-09-24T00:58:08.335Z,7.75
2022-09-24T01:00:40.340Z,8.45
2022-09-24T01:03:13.286Z,8.90
2022-09-24T01:05:40.850Z,8.30
2022-09-24T01:08:13.021Z,7.30
2022-09-24T01:10:48.875Z,8.32
2022-09-24T01:13:30.391Z,8.43
2022-09-24T01:16:18.146Z,11.52
2022-09-24T01:19:12.244Z,16.33
2022-09-24T01:21:49.408Z,8.45
2022-09-24T01:24:57.903Z,6.05
2022-09-24T01:27:45.541Z,9.07
2022-09-24T01:30:15.229Z,8.98
2022-09-24T01:32:55.781Z,11.95
2022-09-24T01:35:51.194Z,10.95
2022-09-24T01:38:31.095Z,11.95
2022-09-24T01:41:02.761Z,11.38
2022-09-24T01:43:32.104Z,11.75
2022-09-24T01:46:03.652Z,15.23
2022-09-24T01:48:33.151Z,13.63
2022-09-24T01:51:14.639Z,12.02
2022-09-24T01:53:45.497Z,13.93
2022-09-24T01:56:28.509Z,9.52
2022-09-24T01:59:20.102Z,7.45
2022-09-24T02:02:06.502Z,7.15
2022-09-24T02:04:39.051Z,9.50
2022-09-24T02:07:30.453Z,16.05
2022-09-24T02:09:57.886Z,20.13
2022-09-24T02:12:42.379Z,20.80
2022-09-24T02:15:32.609Z,21.08
2022-09-24T02:18:06.523Z,20.20
2022-09-24T02:20:36.210Z,17.90
2022-09-24T02:23:06.097Z,23.88
2022-09-24T02:25:42.191Z,16.25
2022-09-24T02:28:09.841Z,18.17
2022-09-24T02:30:46.901Z,17.48
2022-09-24T02:33:34.207Z,14.20
2022-09-24T02:36:01.880Z,14.45
2022-09-24T02:38:29.271Z,17.92
2022-09-24T02:40:57.370Z,26.05
2022-09-24T02:43:26.047Z,22.45
2022-09-24T02:45:53.511Z,19.10
2022-09-24T02:48:21.053Z,18.48
2022-09-24T02:50:48.406Z,16.65
2022-09-24T02:53:15.819Z,18.90
2022-09-24T02:55:43.162Z,20.10
2022-09-24T02:58:10.858Z,20.15
2022-09-24T03:00:38.843Z,22.45
2022-09-24T03:03:06.303Z,21.60
2022-09-24T03:05:34.166Z,19.60
2022-09-24T03:08:01.863Z,20.75
2022-09-24T03:10:30.038Z,26.77
2022-09-24T03:12:58.156Z,18.77
2022-09-24T03:15:25.927Z,18.20
2022-09-24T03:17:53.314Z,20.02
2022-09-24T03:20:20.945Z,19.40
2022-09-24T03:22:52.198Z,20.52
2022-09-24T03:25:20.696Z,24.33
2022-09-24T03:27:48.121Z,14.98
2022-09-24T03:30:33.944Z,17.00
2022-09-24T03:33:01.445Z,13.65
2022-09-24T03:35:28.871Z,16.92
2022-09-24T03:37:56.317Z,13.10
2022-09-24T03:40:24.116Z,14.43
2022-09-24T03:42:51.578Z,17.73
2022-09-24T03:45:18.987Z,8.05
2022-09-24T03:47:46.488Z,18.00
2022-09-24T03:50:13.871Z,12.45
2022-09-24T03:52:41.516Z,16.13
2022-09-24T03:55:09.257Z,15.60
2022-09-24T03:57:36.698Z,11.63
2022-09-24T04:00:04.900Z,9.65
2022-09-24T04:02:32.362Z,10.07
2022-09-24T04:04:59.817Z,12.23
2022-09-24T04:07:27.164Z,11.43
2022-09-24T04:09:54.559Z,14.38
2022-09-24T04:12:23.021Z,7.32
2022-09-24T04:14:50.377Z,10.38
2022-09-24T04:17:17.836Z,12.18
2022-09-24T04:19:45.211Z,12.05
2022-09-24T04:22:12.688Z,26.15
2022-09-24T04:24:40.534Z,15.25
2022-09-24T04:27:07.919Z,10.65
2022-09-24T04:29:35.327Z,10.35
2022-09-24T04:32:03.528Z,13.38
2022-09-24T04:34:30.883Z,7.85
2022-09-24T04:36:58.233Z,12.20
2022-09-24T04:39:27.361Z,12.45
2022-09-24T04:41:54.871Z,11.48
2022-09-24T04:44:23.601Z,8.93
2022-09-24T04:46:51.085Z,15.07
2022-09-24T04:49:18.495Z,10.57
2022-09-24T04:51:45.963Z,9.95
2022-09-24T04:54:13.370Z,9.50
2022-09-24T04:56:40.792Z,11.63
2022-09-24T04:59:08.248Z,13.07
2022-09-24T05:01:36.170Z,8.07
2022-09-24T05:04:03.645Z,7.63
2022-09-24T05:06:30.992Z,13.70
2022-09-24T05:08:58.718Z,11.63
2022-09-24T05:11:26.181Z,8.32
2022-09-24T05:13:53.548Z,5.35
2022-09-24T05:16:21.010Z,9.93
2022-09-24T05:18:48.474Z,11.43
2022-09-24T05:21:15.907Z,11.68
2022-09-24T05:23:43.272Z,10.23
2022-09-24T05:26:29.290Z,12.65
2022-09-24T05:28:56.702Z,8.30
2022-09-24T05:31:24.157Z,10.05
2022-09-24T05:33:51.692Z,7.60
2022-09-24T05:36:19.567Z,9.82
2022-09-24T05:38:46.922Z,5.72
2022-09-24T05:41:14.304Z,9.20
2022-09-24T05:43:41.680Z,13.02
2022-09-24T05:46:09.208Z,10.80
2022-09-24T05:48:36.807Z,10.25
2022-09-24T05:51:05.403Z,9.02
2022-09-24T05:53:33.906Z,12.95
2022-09-24T05:56:01.603Z,6.90
2022-09-24T05:58:29.040Z,18.77
2022-09-24T06:01:00.657Z,11.90
2022-09-24T06:03:29.861Z,9.93
2022-09-24T06:06:02.088Z,13.35
2022-09-24T06:08:32.771Z,8.10
2022-09-24T06:11:02.520Z,14.80
2022-09-24T06:13:30.047Z,13.00
2022-09-24T06:16:12.661Z,11.75
2022-09-24T06:18:42.481Z,11.50
2022-09-24T06:21:15.094Z,14.55
2022-09-24T06:23:42.591Z,13.05
2022-09-24T06:26:11.992Z,8.45
2022-09-24T06:28:39.836Z,12.68
2022-09-24T06:31:09.273Z,15.80
2022-09-24T06:33:37.726Z,15.07
2022-09-24T06:36:05.590Z,11.68
2022-09-24T06:38:33.226Z,10.70
2022-09-24T06:41:02.171Z,9.15
2022-09-24T06:43:30.560Z,9.65
2022-09-24T06:45:59.288Z,11.93
2022-09-24T06:48:27.849Z,9.60
2022-09-24T06:50:56.530Z,10.27
2022-09-24T06:53:24.825Z,10.02
2022-09-24T06:55:53.400Z,6.65
2022-09-24T06:58:21.225Z,9.63
2022-09-24T07:00:58.917Z,7.50
2022-09-24T07:03:29.637Z,7.90
2022-09-24T07:06:01.070Z,6.75
2022-09-24T07:08:28.573Z,8.35
2022-09-24T07:10:56.145Z,6.82
2022-09-24T07:13:23.816Z,8.43
2022-09-24T07:15:52.341Z,10.57
2022-09-24T07:18:21.072Z,6.57
2022-09-24T07:20:55.405Z,6.40
2022-09-24T07:23:23.909Z,11.30
2022-09-24T07:25:56.155Z,14.00
2022-09-24T07:28:23.785Z,12.23
2022-09-24T07:30:58.833Z,9.52
2022-09-24T07:33:26.770Z,14.93
2022-09-24T07:35:54.259Z,15.27
2022-09-24T07:38:22.441Z,8.57
2022-09-24T07:40:49.953Z,10.38
2022-09-24T07:43:17.560Z,13.90
2022-09-24T07:45:45.317Z,11.55
2022-09-24T07:48:13.094Z,11.88
2022-09-24T07:50:42.664Z,10.15
2022-09-24T07:53:13.914Z,9.43
2022-09-24T07:58:12.744Z,8.60
2022-09-24T08:00:40.558Z,13.25
2022-09-24T08:03:08.251Z,15.45
2022-09-24T08:05:35.777Z,9.85
2022-09-24T08:08:03.224Z,10.77
2022-09-24T08:10:30.784Z,16.63
2022-09-24T08:13:01.654Z,10.50
2022-09-24T08:15:29.120Z,9.90
2022-09-24T08:18:02.720Z,8.50
2022-09-24T08:20:31.658Z,9.73
2022-09-24T08:23:03.267Z,11.30
2022-09-24T08:25:31.820Z,9.15
2022-09-24T08:28:04.479Z,10.70
2022-09-24T08:30:32.314Z,7.20
2022-09-24T08:33:00.488Z,10.35
2022-09-24T08:35:27.918Z,10.25
2022-09-24T08:37:55.401Z,9.82
2022-09-24T08:40:26.458Z,10.63
2022-09-24T08:43:07.470Z,7.50
2022-09-24T08:46:07.073Z,12.65
2022-09-24T08:48:37.688Z,8.02
2022-09-24T08:51:20.624Z,12.18
2022-09-24T08:54:09.930Z,13.05
2022-09-24T08:56:44.021Z,11.20
2022-09-24T08:59:30.500Z,9.00
2022-09-24T09:02:19.949Z,9.20
2022-09-24T09:05:15.121Z,10.57
2022-09-24T09:07:49.597Z,9.43
2022-09-24T09:10:27.745Z,6.45
2022-09-24T09:13:24.117Z,8.30
2022-09-24T09:16:15.344Z,8.98
2022-09-24T09:18:46.870Z,8.02
2022-09-24T09:21:34.862Z,7.35
2022-09-24T09:24:03.824Z,7.70
2022-09-24T09:26:31.756Z,10.02
2022-09-24T09:29:01.550Z,5.43
2022-09-24T09:31:40.885Z,6.20
2022-09-24T09:34:11.183Z,6.45
2022-09-24T09:36:53.362Z,4.95
2022-09-24T09:39:37.497Z,6.85
2022-09-24T09:42:32.240Z,6.95
2022-09-24T09:45:18.626Z,9.95
2022-09-24T09:47:50.573Z,5.43
2022-09-24T09:50:53.324Z,9.38
2022-09-24T09:53:31.187Z,5.50
2022-09-24T09:56:00.206Z,4.93
2022-09-24T09:58:31.128Z,6.25
2022-09-24T10:03:44.290Z,6.40
2022-09-24T10:06:14.128Z,5.53
2022-09-24T10:08:41.501Z,3.75
2022-09-24T10:11:16.209Z,6.60
2022-09-24T10:13:44.831Z,8.07
2022-09-24T10:16:15.815Z,4.38
2022-09-24T10:21:35.858Z,5.70
2022-09-24T10:24:11.899Z,5.30
2022-09-24T10:26:45.071Z,6.65
2022-09-24T10:29:38.132Z,4.20
2022-09-24T10:32:06.564Z,3.47
2022-09-24T10:34:33.993Z,5.25
2022-09-24T10:37:15.215Z,8.63
2022-09-24T10:39:42.817Z,4.47
2022-09-24T10:42:24.706Z,6.45
2022-09-24T10:44:53.806Z,6.25
2022-09-24T10:47:57.594Z,4.53
2022-09-24T10:50:31.853Z,4.45
2022-09-24T10:53:32.752Z,5.05
2022-09-24T10:56:07.566Z,6.80
2022-09-24T10:59:07.726Z,8.02
2022-09-24T11:02:07.959Z,5.80
2022-09-24T11:05:15.547Z,4.45
2022-09-24T11:07:56.496Z,4.38
2022-09-24T11:10:44.695Z,6.07
2022-09-24T11:13:40.481Z,7.78
2022-09-24T11:16:32.417Z,15.55
2022-09-24T11:19:07.997Z,4.65
2022-09-24T11:22:10.533Z,7.78
2022-09-24T11:24:57.223Z,3.67
2022-09-24T11:27:51.578Z,3.92
2022-09-24T11:30:44.350Z,3.88
2022-09-24T11:33:38.123Z,5.35
2022-09-24T11:36:20.935Z,2.97
2022-09-24T11:39:12.595Z,4.80
2022-09-24T11:42:20.614Z,7.88
2022-09-24T11:45:02.021Z,5.30
2022-09-24T11:47:30.422Z,5.68
2022-09-24T11:50:16.298Z,4.30
2022-09-24T11:52:53.276Z,4.57
2022-09-24T11:55:31.740Z,3.08
2022-09-24T11:58:30.855Z,5.10
2022-09-24T12:01:10.284Z,6.47
2022-09-24T12:04:10.517Z,6.82
2022-09-24T12:07:06.684Z,5.47
2022-09-24T12:09:39.774Z,4.80
2022-09-24T12:12:17.070Z,4.95
2022-09-24T12:14:59.210Z,3.08
2022-09-24T12:17:41.105Z,3.05
2022-09-24T12:20:30.869Z,3.80
2022-09-24T12:23:08.186Z,5.43
2022-09-24T12:25:45.180Z,2.75
2022-09-24T12:28:35.658Z,2.83
2022-09-24T12:31:29.184Z,4.25
2022-09-24T12:34:08.252Z,3.25
2022-09-24T12:37:02.564Z,4.10
2022-09-24T12:39:38.741Z,4.68
2022-09-24T12:42:11.333Z,3.50
2022-09-24T12:44:54.569Z,3.55
2022-09-24T12:47:31.571Z,3.20
2022-09-24T12:50:05.375Z,3.40
2022-09-24T12:52:39.963Z,3.55
2022-09-24T12:55:21.185Z,3.40
2022-09-24T12:58:05.824Z,4.30
2022-09-24T13:00:41.427Z,6.15
2022-09-24T13:04:01.227Z,4.60
2022-09-24T13:06:34.653Z,6.40
2022-09-24T13:09:35.696Z,3.25
2022-09-24T13:14:35.286Z,2.03
2022-09-24T13:17:06.885Z,0.82
2022-09-24T13:19:36.436Z,4.40
2022-09-24T13:22:04.701Z,2.20
2022-09-24T13:24:45.940Z,1.50
2022-09-24T13:27:31.659Z,3.63
2022-09-24T13:30:05.499Z,1.95
2022-09-24T13:32:38.761Z,1.65
2022-09-24T13:35:21.008Z,4.53
2022-09-24T13:38:23.058Z,2.75
2022-09-24T13:43:56.432Z,3.60
2022-09-24T13:46:25.688Z,0.75
2022-09-24T13:49:01.990Z,1.75
2022-09-24T13:51:36.059Z,2.80
2022-09-24T13:54:46.654Z,1.48
2022-09-24T13:57:42.753Z,2.70
2022-09-24T14:00:16.631Z,4.32
2022-09-24T14:03:00.319Z,7.28
2022-09-24T14:05:29.263Z,1.90
2022-09-24T14:08:04.858Z,4.47
2022-09-24T14:10:33.396Z,4.35
2022-09-24T14:13:22.823Z,6.32
2022-09-24T14:15:57.546Z,4.47
2022-09-24T14:18:27.705Z,4.28
2022-09-24T14:21:30.792Z,2.30
2022-09-24T14:24:23.174Z,4.45
2022-09-24T14:27:11.778Z,2.35
2022-09-24T14:29:58.635Z,6.05
2022-09-24T14:32:38.334Z,1.55
2022-09-24T14:35:32.907Z,2.17
2022-09-24T14:38:08.817Z,2.47
2022-09-24T14:40:45.298Z,5.00
2022-09-24T14:43:38.486Z,5.72
2022-09-24T14:46:21.003Z,4.22
2022-09-24T14:48:48.906Z,3.25
2022-09-24T14:51:28.834Z,2.15
2022-09-24T14:54:28.757Z,3.92
2022-09-24T14:56:56.241Z,4.60
2022-09-24T14:59:36.155Z,2.53
2022-09-24T15:02:23.818Z,4.28
2022-09-24T15:04:54.866Z,4.18
2022-09-24T15:07:25.495Z,2.65
2022-09-24T15:10:00.640Z,2.72
2022-09-24T15:12:34.042Z,4.93
2022-09-24T15:15:05.751Z,1.52
2022-09-24T15:17:35.290Z,7.40
2022-09-24T15:20:04.471Z,5.45
2022-09-24T15:22:32.069Z,1.27
2022-09-24T15:25:02.073Z,4.97
2022-09-24T15:27:32.163Z,4.03
2022-09-24T15:30:01.428Z,4.10
2022-09-24T15:32:31.233Z,2.47
2022-09-24T15:34:58.837Z,3.03
2022-09-24T15:37:28.289Z,9.55
2022-09-24T15:40:07.845Z,14.30
2022-09-24T15:42:35.439Z,6.30
2022-09-24T15:45:02.898Z,4.00
2022-09-24T15:47:30.438Z,3.85
2022-09-24T15:49:58.211Z,2.58
2022-09-24T15:52:28.546Z,5.18
2022-09-24T15:54:57.957Z,3.17
2022-09-24T15:57:28.571Z,5.32
2022-09-24T15:59:55.943Z,4.15
2022-09-24T16:02:29.198Z,9.02
2022-09-24T16:05:02.695Z,4.90
2022-09-24T16:07:31.235Z,7.13
2022-09-24T16:09:58.666Z,5.90
2022-09-24T16:12:28.188Z,7.00
2022-09-24T16:14:59.137Z,3.45
2022-09-24T16:19:56.956Z,2.45
2022-09-24T16:22:24.785Z,2.53
2022-09-24T16:24:52.221Z,7.88
2022-09-24T16:27:19.632Z,6.10
2022-09-24T16:29:47.128Z,1.75
2022-09-24T16:32:14.543Z,1.83
2022-09-24T16:34:42.101Z,3.08
2022-09-24T16:37:10.028Z,4.25
2022-09-24T16:39:37.562Z,5.20
2022-09-24T16:42:05.050Z,2.30
2022-09-24T16:44:32.472Z,4.70
2022-09-24T16:47:00.060Z,4.28
2022-09-24T16:49:27.796Z,2.95
2022-09-24T16:51:55.877Z,3.63
2022-09-24T16:54:23.428Z,5.57
2022-09-24T16:56:52.185Z,2.92
2022-09-24T16:59:19.844Z,2.83
2022-09-24T17:01:47.305Z,4.05
2022-09-24T17:04:14.754Z,2.55
2022-09-24T17:06:45.064Z,1.90
2022-09-24T17:09:31.599Z,2.95
2022-09-24T17:11:58.954Z,4.15
2022-09-24T17:14:26.468Z,4.75
2022-09-24T17:16:53.952Z,3.20
2022-09-24T17:19:21.465Z,3.53
2022-09-24T17:21:52.233Z,3.95
2022-09-24T17:24:21.974Z,6.35
2022-09-24T17:26:49.889Z,3.97
2022-09-24T17:29:20.739Z,2.47
2022-09-24T17:34:16.809Z,4.75
2022-09-24T17:36:44.274Z,5.75
2022-09-24T17:39:13.120Z,4.85
2022-09-24T17:41:40.586Z,4.57
2022-09-24T17:44:09.412Z,4.40
2022-09-24T17:46:36.927Z,4.60
2022-09-24T17:49:04.623Z,3.75
2022-09-24T17:51:36.710Z,8.63
2022-09-24T17:54:10.865Z,7.30
2022-09-24T17:56:40.416Z,6.70
2022-09-24T17:59:12.663Z,9.52
2022-09-24T18:01:42.947Z,8.05
2022-09-24T18:04:16.339Z,6.43
2022-09-24T18:06:45.800Z,11.18
2022-09-24T18:09:14.832Z,6.20
2022-09-24T18:11:47.676Z,5.43
2022-09-24T18:14:17.458Z,9.57
2022-09-24T18:16:45.761Z,6.60
2022-09-24T18:19:17.029Z,6.25
2022-09-24T18:21:45.824Z,5.25
2022-09-24T18:24:14.431Z,6.85
2022-09-24T18:26:41.969Z,7.07
2022-09-24T18:29:15.656Z,2.58
2022-09-24T18:31:43.804Z,4.80
2022-09-24T18:34:15.822Z,5.65
2022-09-24T18:36:44.998Z,8.90
2022-09-24T18:39:17.676Z,2.95
2022-09-24T18:41:47.676Z,8.10
2022-09-24T18:44:15.109Z,7.43
2022-09-24T18:46:43.018Z,4.15
2022-09-24T18:49:11.990Z,6.55
2022-09-24T18:51:39.659Z,7.00
2022-09-24T18:54:12.204Z,9.88
2022-09-24T18:56:40.429Z,12.85
2022-09-24T18:59:12.215Z,7.95
2022-09-24T19:01:41.361Z,8.73
2022-09-24T19:04:10.794Z,6.65
2022-09-24T19:06:41.240Z,5.03
2022-09-24T19:09:10.659Z,8.40
2022-09-24T19:11:38.564Z,7.50
2022-09-24T19:14:06.225Z,6.95
2022-09-24T19:16:33.724Z,5.97
2022-09-24T19:19:01.600Z,6.80
2022-09-24T19:21:29.916Z,4.53
2022-09-24T19:23:59.152Z,7.53
2022-09-24T19:26:31.358Z,8.05
2022-09-24T19:29:00.078Z,20.15
2022-09-24T19:31:30.496Z,11.60
2022-09-24T19:34:00.217Z,9.53
2022-09-24T19:36:27.637Z,6.53
2022-09-24T19:38:55.660Z,4.20
2022-09-24T19:41:26.376Z,5.97
2022-09-24T19:46:26.891Z,7.90
2022-09-24T19:48:56.217Z,6.70
2022-09-24T19:51:41.995Z,6.78
2022-09-24T19:54:11.108Z,4.63
2022-09-24T19:56:38.908Z,9.25
2022-09-24T19:59:08.001Z,2.95
2022-09-24T20:01:35.687Z,5.90
2022-09-24T20:04:06.903Z,7.65
2022-09-24T20:06:36.358Z,10.68
2022-09-24T20:09:04.984Z,9.25
2022-09-24T20:11:33.774Z,4.72
2022-09-24T20:14:01.907Z,6.53
2022-09-24T20:16:32.684Z,4.85
2022-09-24T20:19:01.503Z,12.35
2022-09-24T20:21:33.837Z,13.70
2022-09-24T20:24:03.624Z,6.05
2022-09-24T20:26:50.113Z,8.35
2022-09-24T20:29:19.820Z,7.43
2022-09-24T20:31:52.093Z,4.63
2022-09-24T20:34:21.971Z,8.15
2022-09-24T20:36:49.514Z,4.85
2022-09-24T20:39:17.673Z,5.57
2022-09-24T20:41:45.445Z,6.60
2022-09-24T20:44:13.024Z,8.77
2022-09-24T20:46:40.632Z,4.50
2022-09-24T20:49:08.084Z,5.45
2022-09-24T20:51:35.484Z,8.88
2022-09-24T20:54:02.933Z,5.43
2022-09-24T20:56:30.817Z,7.55
2022-09-24T20:58:58.874Z,7.72
2022-09-24T21:01:26.941Z,7.70
2022-09-24T21:03:55.193Z,7.35
2022-09-24T21:06:26.101Z,9.13
2022-09-24T21:08:55.011Z,5.65
2022-09-24T21:11:28.384Z,5.22
2022-09-24T21:14:01.009Z,10.50
2022-09-24T21:16:34.499Z,3.90
2022-09-24T21:19:04.821Z,6.03
2022-09-24T21:21:38.592Z,6.83
2022-09-24T21:24:10.517Z,5.68
2022-09-24T21:26:39.424Z,4.72
2022-09-24T21:29:11.550Z,9.80
2022-09-24T21:31:40.111Z,5.07
2022-09-24T21:34:08.631Z,9.10
2022-09-24T21:36:43.731Z,10.30
2022-09-24T21:39:27.009Z,9.70
2022-09-24T21:41:59.742Z,7.70
2022-09-24T21:44:30.646Z,8.02
2022-09-24T21:46:58.471Z,6.65
2022-09-24T21:49:26.274Z,6.20
2022-09-24T21:51:57.035Z,6.05
2022-09-24T21:54:24.513Z,10.43
2022-09-24T21:56:54.753Z,5.72
2022-09-24T21:59:41.060Z,7.60
2022-09-24T22:02:10.124Z,10.13
2022-09-24T22:04:37.972Z,6.43
2022-09-24T22:07:05.514Z,5.55
2022-09-24T22:09:33.631Z,5.60
2022-09-24T22:12:04.626Z,9.68
2022-09-24T22:14:34.675Z,7.20
2022-09-24T22:17:03.868Z,5.67
2022-09-24T22:19:31.665Z,9.93
2022-09-24T22:21:59.170Z,4.85
2022-09-24T22:24:26.804Z,6.35
2022-09-24T22:26:54.377Z,11.75
2022-09-24T22:29:21.816Z,8.90
2022-09-24T22:31:49.187Z,7.45
2022-09-24T22:34:35.355Z,11.85
2022-09-24T22:37:05.956Z,9.52
2022-09-24T22:39:34.416Z,7.75
2022-09-24T22:42:02.060Z,8.27
2022-09-24T22:44:29.497Z,11.82
2022-09-24T22:46:57.155Z,9.10
2022-09-24T22:49:24.922Z,6.47
2022-09-24T22:51:52.354Z,7.47
2022-09-24T22:54:19.837Z,8.13
2022-09-24T22:56:47.230Z,12.55
2022-09-24T22:59:14.718Z,13.13
2022-09-24T23:01:43.975Z,5.75
2022-09-24T23:04:15.161Z,11.10
2022-09-24T23:06:43.829Z,6.13
2022-09-24T23:09:11.821Z,6.28
2022-09-24T23:11:39.745Z,9.50
2022-09-24T23:14:12.737Z,10.85
2022-09-24T23:16:42.218Z,5.50
2022-09-24T23:19:18.948Z,10.10
2022-09-24T23:21:46.585Z,12.40
2022-09-24T23:24:19.656Z,6.55
2022-09-24T23:26:47.064Z,30.40
2022-09-24T23:29:15.428Z,8.70
2022-09-24T23:31:43.635Z,11.43
2022-09-24T23:34:12.972Z,8.13
2022-09-24T23:36:40.934Z,9.57
2022-09-24T23:39:08.353Z,7.35
2022-09-24T23:41:35.774Z,6.68
2022-09-24T23:44:04.247Z,8.18
2022-09-24T23:46:33.828Z,11.30
2022-09-24T23:49:01.336Z,3.05
2022-09-24T23:51:28.804Z,16.17
2022-09-24T23:53:56.159Z,6.03
2022-09-24T23:56:23.597Z,9.75
2022-09-24T23:58:50.972Z,6.05
